createdAt,value
2023-05-08T00:01:20.140Z,2.20
2023-05-08T00:03:46.806Z,3.27
2023-05-08T00:06:13.503Z,4.23
2023-05-08T00:08:40.489Z,2.13
2023-05-08T00:11:06.905Z,2.60
2023-05-08T00:13:33.351Z,3.67
2023-05-08T00:15:59.855Z,2.63
2023-05-08T00:18:26.619Z,1.80
2023-05-08T00:20:53.047Z,2.53
2023-05-08T00:23:22.104Z,2.77
2023-05-08T00:25:48.651Z,2.20
2023-05-08T00:28:15.132Z,3.53
2023-05-08T00:30:42.744Z,2.67
2023-05-08T00:33:09.730Z,4.07
2023-05-08T00:35:36.378Z,6.47
2023-05-08T00:38:03.268Z,2.80
2023-05-08T00:40:29.781Z,4.30
2023-05-08T00:42:56.271Z,3.20
2023-05-08T00:45:22.843Z,2.67
2023-05-08T00:47:50.089Z,2.50
2023-05-08T00:50:17.075Z,3.10
2023-05-08T00:52:43.603Z,3.57
2023-05-08T00:55:10.101Z,7.40
2023-05-08T00:57:36.910Z,3.17
2023-05-08T01:00:04.439Z,5.10
2023-05-08T01:02:31.738Z,2.80
2023-05-08T01:04:58.255Z,3.07
2023-05-08T01:07:24.735Z,3.07
2023-05-08T01:09:51.224Z,3.87
2023-05-08T01:12:34.611Z,4.67
2023-05-08T01:15:01.382Z,3.90
2023-05-08T01:17:36.594Z,4.40
2023-05-08T01:20:03.193Z,2.33
2023-05-08T01:22:38.819Z,3.37
2023-05-08T01:25:23.559Z,3.20
2023-05-08T01:27:52.849Z,3.83
2023-05-08T01:30:19.245Z,4.90
2023-05-08T01:32:54.459Z,3.90
2023-05-08T01:35:43.944Z,4.93
2023-05-08T01:38:12.831Z,3.10
2023-05-08T01:40:42.387Z,6.10
2023-05-08T01:43:26.901Z,3.20
2023-05-08T01:45:55.065Z,4.43
2023-05-08T01:48:42.985Z,4.53
2023-05-08T01:51:13.634Z,2.37
2023-05-08T01:53:45.135Z,2.00
2023-05-08T01:56:22.190Z,4.90
2023-05-08T01:58:50.396Z,3.10
2023-05-08T02:01:18.620Z,2.40
2023-05-08T02:03:46.185Z,3.67
2023-05-08T02:06:13.718Z,4.77
2023-05-08T02:08:41.503Z,2.40
2023-05-08T02:11:08.671Z,6.47
2023-05-08T02:13:35.726Z,2.93
2023-05-08T02:16:02.658Z,5.53
2023-05-08T02:18:31.937Z,3.17
2023-05-08T02:20:59.994Z,2.43
2023-05-08T02:23:26.865Z,5.07
2023-05-08T02:25:54.005Z,4.03
2023-05-08T02:28:20.708Z,3.40
2023-05-08T02:30:48.269Z,6.43
2023-05-08T02:33:15.613Z,4.17
2023-05-08T02:35:43.790Z,5.43
2023-05-08T02:38:11.364Z,3.30
2023-05-08T02:40:39.925Z,5.53
2023-05-08T02:43:07.498Z,9.30
2023-05-08T02:45:39.744Z,4.53
2023-05-08T02:48:11.964Z,8.83
2023-05-08T02:50:41.413Z,3.93
2023-05-08T02:53:11.186Z,3.83
2023-05-08T02:55:44.232Z,3.23
2023-05-08T02:58:25.442Z,8.03
2023-05-08T03:01:01.328Z,3.53
2023-05-08T03:03:31.599Z,3.80
2023-05-08T03:05:59.885Z,5.27
2023-05-08T03:08:29.866Z,3.17
2023-05-08T03:10:59.018Z,7.50
2023-05-08T03:13:27.715Z,5.07
2023-05-08T03:15:58.806Z,5.07
2023-05-08T03:18:28.930Z,6.17
2023-05-08T03:20:57.878Z,5.93
2023-05-08T03:23:26.300Z,5.57
2023-05-08T03:25:52.855Z,3.37
2023-05-08T03:28:19.955Z,5.13
2023-05-08T03:30:47.151Z,8.37
2023-05-08T03:33:14.040Z,4.53
2023-05-08T03:35:41.266Z,4.37
2023-05-08T03:38:08.387Z,3.87
2023-05-08T03:40:38.976Z,4.80
2023-05-08T03:43:08.686Z,4.70
2023-05-08T03:45:39.292Z,3.87
2023-05-08T03:48:06.687Z,3.70
2023-05-08T03:50:34.978Z,5.00
2023-05-08T03:53:01.779Z,4.57
2023-05-08T03:55:28.276Z,4.50
2023-05-08T03:58:00.685Z,8.10
2023-05-08T04:00:45.884Z,5.13
2023-05-08T04:06:05.864Z,8.63
2023-05-08T04:08:34.669Z,6.97
2023-05-08T04:11:15.816Z,8.47
2023-05-08T04:13:48.913Z,9.10
2023-05-08T04:16:19.547Z,11.63
2023-05-08T04:18:47.627Z,9.27
2023-05-08T04:21:16.426Z,8.60
2023-05-08T04:23:44.278Z,7.07
2023-05-08T04:26:11.722Z,6.07
2023-05-08T04:28:38.276Z,7.03
2023-05-08T04:31:05.169Z,7.77
2023-05-08T04:33:32.929Z,6.47
2023-05-08T04:36:01.544Z,8.47
2023-05-08T04:38:28.027Z,7.77
2023-05-08T04:40:54.586Z,7.50
2023-05-08T04:43:21.157Z,9.77
2023-05-08T04:45:47.695Z,6.07
2023-05-08T04:48:14.157Z,6.27
2023-05-08T04:50:40.700Z,3.70
2023-05-08T04:53:07.320Z,4.23
2023-05-08T04:55:33.890Z,4.20
2023-05-08T04:58:00.383Z,6.87
2023-05-08T05:00:26.829Z,7.63
2023-05-08T05:02:53.344Z,7.43
2023-05-08T05:05:19.812Z,5.27
2023-05-08T05:07:46.256Z,6.17
2023-05-08T05:10:12.754Z,4.43
2023-05-08T05:12:39.417Z,5.93
2023-05-08T05:15:06.214Z,4.07
2023-05-08T05:17:33.503Z,4.50
2023-05-08T05:20:00.019Z,7.77
2023-05-08T05:22:27.911Z,7.43
2023-05-08T05:24:54.423Z,5.83
2023-05-08T05:27:21.450Z,5.13
2023-05-08T05:29:47.974Z,6.63
2023-05-08T05:32:14.586Z,6.20
2023-05-08T05:34:41.111Z,6.53
2023-05-08T05:37:07.878Z,5.00
2023-05-08T05:39:35.867Z,3.57
2023-05-08T05:42:02.328Z,5.67
2023-05-08T05:44:29.008Z,4.10
2023-05-08T05:46:55.516Z,6.07
2023-05-08T05:49:22.249Z,3.47
2023-05-08T05:51:48.682Z,3.47
2023-05-08T05:54:15.157Z,2.47
2023-05-08T05:56:41.635Z,3.13
2023-05-08T05:59:08.124Z,2.60
2023-05-08T06:01:34.642Z,3.07
2023-05-08T06:04:01.239Z,5.30
2023-05-08T06:06:27.871Z,5.73
2023-05-08T06:08:54.437Z,3.17
2023-05-08T06:11:22.615Z,2.70
2023-05-08T06:13:50.487Z,3.07
2023-05-08T06:16:17.235Z,2.50
2023-05-08T06:18:43.798Z,5.27
2023-05-08T06:21:10.277Z,5.50
2023-05-08T06:23:36.765Z,3.63
2023-05-08T06:26:03.428Z,3.10
2023-05-08T06:28:29.936Z,2.40
2023-05-08T06:30:56.446Z,3.30
2023-05-08T06:33:25.433Z,4.67
2023-05-08T06:35:53.207Z,3.20
2023-05-08T06:38:19.660Z,3.73
2023-05-08T06:40:46.364Z,4.17
2023-05-08T06:43:13.032Z,6.40
2023-05-08T06:45:40.100Z,3.27
2023-05-08T06:48:06.806Z,3.33
2023-05-08T06:50:33.414Z,5.73
2023-05-08T06:52:59.971Z,5.00
2023-05-08T06:55:26.610Z,2.63
2023-05-08T06:57:53.106Z,4.63
2023-05-08T07:00:19.671Z,3.00
2023-05-08T07:02:46.152Z,2.90
2023-05-08T07:05:13.007Z,3.30
2023-05-08T07:07:39.727Z,5.67
2023-05-08T07:10:07.935Z,3.57
2023-05-08T07:12:34.535Z,4.13
2023-05-08T07:15:07.784Z,4.25
2023-05-08T07:17:41.675Z,2.97
2023-05-08T07:20:08.858Z,2.15
2023-05-08T07:22:35.324Z,2.27
2023-05-08T07:25:01.804Z,3.28
2023-05-08T07:27:28.368Z,4.68
2023-05-08T07:29:54.828Z,3.55
2023-05-08T07:32:21.354Z,5.03
2023-05-08T07:34:47.820Z,3.28
2023-05-08T07:37:15.151Z,5.15
2023-05-08T07:39:41.610Z,3.88
2023-05-08T07:42:08.091Z,2.47
2023-05-08T07:44:40.617Z,4.43
2023-05-08T07:47:17.428Z,3.50
2023-05-08T07:49:43.905Z,3.47
2023-05-08T07:52:10.349Z,4.10
2023-05-08T07:54:36.853Z,3.35
2023-05-08T07:57:03.349Z,2.55
2023-05-08T07:59:29.828Z,4.18
2023-05-08T08:01:56.521Z,7.18
2023-05-08T08:04:23.162Z,4.25
2023-05-08T08:06:49.847Z,2.90
2023-05-08T08:09:16.328Z,2.78
2023-05-08T08:11:42.797Z,5.03
2023-05-08T08:14:09.204Z,2.53
2023-05-08T08:16:35.768Z,5.32
2023-05-08T08:19:02.308Z,3.03
2023-05-08T08:21:28.934Z,2.35
2023-05-08T08:23:55.503Z,3.35
2023-05-08T08:26:21.934Z,3.08
2023-05-08T08:28:48.387Z,2.25
2023-05-08T08:31:16.575Z,4.40
2023-05-08T08:33:43.358Z,3.28
2023-05-08T08:36:13.362Z,2.60
2023-05-08T08:38:39.855Z,3.28
2023-05-08T08:41:06.326Z,3.15
2023-05-08T08:43:33.350Z,4.63
2023-05-08T08:46:01.152Z,5.00
2023-05-08T08:48:28.450Z,4.03
2023-05-08T08:50:58.881Z,3.22
2023-05-08T08:53:33.110Z,4.78
2023-05-08T08:56:00.839Z,2.60
2023-05-08T08:58:33.013Z,3.50
2023-05-08T09:01:00.554Z,5.90
2023-05-08T09:03:27.513Z,3.03
2023-05-08T09:05:54.683Z,4.57
2023-05-08T09:08:21.272Z,3.85
2023-05-08T09:10:47.838Z,3.40
2023-05-08T09:13:14.310Z,4.07
2023-05-08T09:15:41.030Z,3.88
2023-05-08T09:18:07.583Z,3.78
2023-05-08T09:20:34.531Z,4.00
2023-05-08T09:23:02.386Z,3.60
2023-05-08T09:25:41.167Z,3.45
2023-05-08T09:28:17.921Z,3.60
2023-05-08T09:30:51.733Z,5.97
2023-05-08T09:33:18.421Z,9.98
2023-05-08T09:35:44.872Z,4.00
2023-05-08T09:38:31.389Z,4.10
2023-05-08T09:41:08.684Z,4.32
2023-05-08T09:43:35.297Z,3.00
2023-05-08T09:46:23.266Z,2.90
2023-05-08T09:48:50.420Z,3.25
2023-05-08T09:51:17.076Z,3.00
2023-05-08T09:53:44.072Z,6.43
2023-05-08T09:56:10.621Z,6.38
2023-05-08T09:58:43.833Z,4.25
2023-05-08T10:01:45.587Z,2.92
2023-05-08T10:04:12.139Z,3.85
2023-05-08T10:06:38.981Z,2.10
2023-05-08T10:09:10.605Z,3.85
2023-05-08T10:11:37.487Z,3.30
2023-05-08T10:14:04.120Z,3.50
2023-05-08T10:16:31.753Z,2.75
2023-05-08T10:19:02.418Z,2.70
2023-05-08T10:21:29.367Z,6.22
2023-05-08T10:23:57.459Z,4.07
2023-05-08T10:26:27.469Z,2.70
2023-05-08T10:28:57.975Z,3.03
2023-05-08T10:31:28.577Z,2.90
2023-05-08T10:33:56.688Z,3.28
2023-05-08T10:36:27.408Z,3.58
2023-05-08T10:38:57.509Z,5.00
2023-05-08T10:41:24.155Z,5.53
2023-05-08T10:43:50.750Z,3.03
2023-05-08T10:46:17.184Z,3.08
2023-05-08T10:49:02.343Z,4.97
2023-05-08T10:51:28.862Z,3.03
2023-05-08T10:54:14.298Z,2.60
2023-05-08T10:56:40.899Z,3.33
2023-05-08T10:59:17.206Z,2.83
2023-05-08T11:01:47.182Z,2.70
2023-05-08T11:04:21.645Z,4.07
2023-05-08T11:06:52.805Z,2.40
2023-05-08T11:09:23.319Z,3.05
2023-05-08T11:11:59.249Z,2.47
2023-05-08T11:14:27.005Z,2.78
2023-05-08T11:16:53.486Z,7.07
2023-05-08T11:19:20.898Z,3.58
2023-05-08T11:22:05.836Z,4.57
2023-05-08T11:24:38.792Z,4.18
2023-05-08T11:27:05.490Z,2.70
2023-05-08T11:29:32.502Z,7.18
2023-05-08T11:31:59.077Z,2.20
2023-05-08T11:34:44.097Z,2.60
2023-05-08T11:37:11.267Z,2.37
2023-05-08T11:39:37.878Z,5.70
2023-05-08T11:42:23.235Z,5.23
2023-05-08T11:44:49.772Z,7.80
2023-05-08T11:47:18.683Z,3.90
2023-05-08T11:49:45.260Z,2.83
2023-05-08T11:52:11.881Z,3.25
2023-05-08T11:54:38.425Z,3.53
2023-05-08T11:57:04.958Z,5.22
2023-05-08T11:59:34.848Z,3.30
2023-05-08T12:02:08.352Z,4.28
2023-05-08T12:04:46.697Z,6.88
2023-05-08T12:07:13.569Z,3.30
2023-05-08T12:09:40.153Z,3.55
2023-05-08T12:12:06.821Z,2.50
2023-05-08T12:14:34.722Z,2.50
2023-05-08T12:17:02.405Z,2.58
2023-05-08T12:19:28.954Z,3.60
2023-05-08T12:21:56.984Z,3.63
2023-05-08T12:24:24.360Z,2.30
2023-05-08T12:26:54.289Z,3.07
2023-05-08T12:29:20.887Z,3.80
2023-05-08T12:31:47.755Z,3.95
2023-05-08T12:34:14.346Z,4.00
2023-05-08T12:36:40.862Z,3.37
2023-05-08T12:39:14.258Z,5.73
2023-05-08T12:41:50.968Z,3.23
2023-05-08T12:44:18.201Z,4.60
2023-05-08T12:46:49.623Z,4.23
2023-05-08T12:49:22.982Z,7.10
2023-05-08T12:51:50.831Z,3.83
2023-05-08T12:54:17.347Z,4.67
2023-05-08T12:56:46.790Z,2.90
2023-05-08T12:59:13.246Z,5.07
2023-05-08T13:01:39.802Z,4.27
2023-05-08T13:04:09.327Z,3.47
2023-05-08T13:06:35.860Z,4.97
2023-05-08T13:09:02.350Z,2.43
2023-05-08T13:11:30.604Z,3.67
2023-05-08T13:13:57.106Z,3.13
2023-05-08T13:16:23.695Z,5.30
2023-05-08T13:18:50.202Z,4.20
2023-05-08T13:21:16.681Z,3.97
2023-05-08T13:23:43.498Z,5.83
2023-05-08T13:26:10.160Z,2.40
2023-05-08T13:28:36.571Z,3.63
2023-05-08T13:31:03.005Z,3.87
2023-05-08T13:33:29.506Z,3.43
2023-05-08T13:35:56.578Z,4.70
2023-05-08T13:38:23.096Z,3.30
2023-05-08T13:40:49.646Z,5.23
2023-05-08T13:43:16.085Z,4.33
2023-05-08T13:45:42.558Z,3.30
2023-05-08T13:48:09.181Z,7.83
2023-05-08T13:50:35.703Z,5.27
2023-05-08T13:53:02.185Z,5.60
2023-05-08T13:55:28.667Z,10.27
2023-05-08T13:57:55.162Z,3.43
2023-05-08T14:00:21.620Z,4.77
2023-05-08T14:02:50.814Z,5.70
2023-05-08T14:05:18.934Z,4.83
2023-05-08T14:07:45.776Z,3.47
2023-05-08T14:10:12.379Z,4.93
2023-05-08T14:12:39.877Z,3.83
2023-05-08T14:15:06.772Z,4.17
2023-05-08T14:17:33.395Z,4.03
2023-05-08T14:19:59.887Z,6.53
2023-05-08T14:22:26.454Z,3.97
2023-05-08T14:24:53.231Z,13.17
2023-05-08T14:27:19.756Z,6.13
2023-05-08T14:29:46.228Z,4.50
2023-05-08T14:32:12.709Z,5.90
2023-05-08T14:34:39.196Z,3.83
2023-05-08T14:37:05.672Z,6.77
2023-05-08T14:39:32.149Z,7.23
2023-05-08T14:44:32.149Z,8.40
2023-05-08T14:46:58.582Z,6.03
2023-05-08T14:52:11.596Z,8.07
2023-05-08T14:54:38.134Z,7.90
2023-05-08T14:57:04.718Z,7.80
2023-05-08T14:59:31.209Z,10.07
2023-05-08T15:01:57.727Z,9.03
2023-05-08T15:04:24.374Z,8.87
2023-05-08T15:06:50.912Z,7.80
2023-05-08T15:09:17.465Z,6.87
2023-05-08T15:11:44.400Z,8.90
2023-05-08T15:14:11.017Z,8.93
2023-05-08T15:16:37.613Z,6.70
2023-05-08T15:19:04.160Z,8.80
2023-05-08T15:21:31.174Z,8.87
2023-05-08T15:23:57.804Z,7.83
2023-05-08T15:26:24.329Z,9.50
2023-05-08T15:28:51.037Z,9.27
2023-05-08T15:31:18.025Z,8.97
2023-05-08T15:33:45.372Z,9.37
2023-05-08T15:36:15.047Z,10.97
2023-05-08T15:38:41.631Z,8.70
2023-05-08T15:41:12.136Z,11.23
2023-05-08T15:43:40.973Z,8.73
2023-05-08T15:46:07.720Z,12.70
2023-05-08T15:48:34.272Z,8.93
2023-05-08T15:51:00.967Z,9.00
2023-05-08T15:53:27.477Z,12.47
2023-05-08T15:55:54.285Z,12.87
2023-05-08T15:58:21.265Z,13.13
2023-05-08T16:00:47.765Z,12.40
2023-05-08T16:03:14.472Z,14.53
2023-05-08T16:05:41.082Z,12.53
2023-05-08T16:08:08.387Z,12.10
2023-05-08T16:10:34.863Z,12.03
2023-05-08T16:13:01.376Z,12.10
2023-05-08T16:15:27.948Z,12.90
2023-05-08T16:17:54.609Z,12.77
2023-05-08T16:20:21.197Z,22.83
2023-05-08T16:22:47.665Z,18.80
2023-05-08T16:25:14.624Z,14.77
2023-05-08T16:27:41.320Z,12.83
2023-05-08T16:30:08.114Z,13.23
2023-05-08T16:32:34.596Z,17.40
2023-05-08T16:35:01.250Z,15.73
2023-05-08T16:37:27.799Z,13.77
2023-05-08T16:39:54.293Z,12.00
2023-05-08T16:42:20.927Z,12.83
2023-05-08T16:44:47.511Z,13.47
2023-05-08T16:47:13.982Z,13.13
2023-05-08T16:49:40.766Z,14.03
2023-05-08T16:52:07.229Z,12.70
2023-05-08T16:54:33.993Z,16.23
2023-05-08T16:57:00.419Z,14.03
2023-05-08T16:59:26.964Z,13.67
2023-05-08T17:01:53.456Z,13.97
2023-05-08T17:04:20.041Z,14.17
2023-05-08T17:06:46.487Z,14.43
2023-05-08T17:09:12.919Z,14.70
2023-05-08T17:11:39.470Z,18.07
2023-05-08T17:14:06.048Z,19.60
2023-05-08T17:16:33.884Z,21.23
2023-05-08T17:19:00.627Z,20.97
2023-05-08T17:21:27.119Z,17.80
2023-05-08T17:23:53.592Z,12.50
2023-05-08T17:26:21.098Z,13.27
2023-05-08T17:28:47.573Z,17.50
2023-05-08T17:31:15.597Z,13.93
2023-05-08T17:33:42.165Z,17.77
2023-05-08T17:36:08.749Z,15.43
2023-05-08T17:38:37.346Z,13.37
2023-05-08T17:41:03.828Z,15.17
2023-05-08T17:43:30.944Z,13.37
2023-05-08T17:45:57.562Z,14.97
2023-05-08T17:48:24.062Z,15.27
2023-05-08T17:50:50.570Z,14.67
2023-05-08T17:53:17.103Z,19.17
2023-05-08T17:55:43.579Z,18.57
2023-05-08T17:58:10.047Z,18.57
2023-05-08T18:00:37.685Z,20.23
2023-05-08T18:03:04.583Z,20.03
2023-05-08T18:05:31.121Z,19.57
2023-05-08T18:07:57.622Z,19.10
2023-05-08T18:10:24.107Z,18.73
2023-05-08T18:12:50.653Z,23.13
2023-05-08T18:15:17.209Z,25.10
2023-05-08T18:17:44.000Z,19.90
2023-05-08T18:20:11.340Z,19.07
2023-05-08T18:22:38.051Z,22.13
2023-05-08T18:25:04.716Z,20.43
2023-05-08T18:27:34.343Z,19.33
2023-05-08T18:30:00.971Z,20.00
2023-05-08T18:32:27.598Z,19.07
2023-05-08T18:34:54.101Z,18.60
2023-05-08T18:37:20.706Z,19.30
2023-05-08T18:39:47.279Z,19.87
2023-05-08T18:42:13.713Z,16.53
2023-05-08T18:44:40.288Z,16.27
2023-05-08T18:47:07.251Z,16.83
2023-05-08T18:49:33.675Z,15.13
2023-05-08T18:52:00.202Z,17.53
2023-05-08T18:54:33.425Z,18.97
2023-05-08T18:56:59.974Z,16.67
2023-05-08T18:59:26.451Z,18.57
2023-05-08T19:01:54.579Z,16.58
2023-05-08T19:04:21.017Z,15.03
2023-05-08T19:06:47.505Z,15.77
2023-05-08T19:09:14.061Z,19.03
2023-05-08T19:11:40.511Z,15.57
2023-05-08T19:14:07.021Z,18.13
2023-05-08T19:16:33.516Z,15.87
2023-05-08T19:19:00.043Z,17.67
2023-05-08T19:21:26.617Z,17.73
2023-05-08T19:23:53.166Z,18.10
2023-05-08T19:26:19.614Z,15.70
2023-05-08T19:28:46.083Z,24.27
2023-05-08T19:31:12.591Z,17.47
2023-05-08T19:33:39.203Z,15.10
2023-05-08T19:36:05.683Z,13.37
2023-05-08T19:38:33.696Z,16.87
2023-05-08T19:41:00.481Z,11.57
2023-05-08T19:43:29.695Z,15.90
2023-05-08T19:45:56.317Z,15.90
2023-05-08T19:48:23.062Z,15.80
2023-05-08T19:50:50.963Z,15.47
2023-05-08T19:53:18.695Z,13.10
2023-05-08T19:55:45.507Z,11.50
2023-05-08T19:58:12.083Z,12.53
2023-05-08T20:00:38.542Z,13.70
2023-05-08T20:03:05.193Z,13.20
2023-05-08T20:05:34.637Z,17.93
2023-05-08T20:08:01.141Z,17.50
2023-05-08T20:10:27.675Z,15.93
2023-05-08T20:12:54.209Z,16.80
2023-05-08T20:15:20.765Z,16.70
2023-05-08T20:17:47.274Z,18.67
2023-05-08T20:20:13.937Z,15.03
2023-05-08T20:22:40.602Z,14.43
2023-05-08T20:25:07.255Z,19.63
2023-05-08T20:27:33.748Z,17.20
2023-05-08T20:30:04.008Z,15.23
2023-05-08T20:32:30.663Z,14.00
2023-05-08T20:34:57.132Z,14.00
2023-05-08T20:37:23.610Z,15.00
2023-05-08T20:39:53.317Z,13.93
2023-05-08T20:42:22.656Z,19.27
2023-05-08T20:44:49.076Z,16.27
2023-05-08T20:47:15.573Z,16.23
2023-05-08T20:49:42.108Z,17.40
2023-05-08T20:52:08.599Z,17.07
2023-05-08T20:54:35.092Z,16.77
2023-05-08T20:57:02.107Z,15.60
2023-05-08T20:59:28.724Z,16.57
2023-05-08T21:01:55.179Z,15.50
2023-05-08T21:04:21.707Z,14.97
2023-05-08T21:06:49.786Z,13.93
2023-05-08T21:09:17.116Z,16.03
2023-05-08T21:11:43.584Z,14.30
2023-05-08T21:14:10.064Z,16.57
2023-05-08T21:16:36.580Z,13.00
2023-05-08T21:19:03.024Z,15.83
2023-05-08T21:21:29.454Z,12.77
2023-05-08T21:23:56.059Z,15.67
2023-05-08T21:26:23.758Z,14.53
2023-05-08T21:28:52.537Z,13.90
2023-05-08T21:31:19.232Z,14.80
2023-05-08T21:33:46.053Z,15.10
2023-05-08T21:36:12.744Z,14.43
2023-05-08T21:38:39.152Z,12.53
2023-05-08T21:41:07.348Z,15.43
2023-05-08T21:43:35.522Z,15.80
2023-05-08T21:46:05.710Z,18.60
2023-05-08T21:48:32.223Z,15.10
2023-05-08T21:50:58.963Z,15.93
2023-05-08T21:53:25.433Z,14.73
2023-05-08T21:55:51.892Z,15.93
2023-05-08T21:58:18.327Z,15.17
2023-05-08T22:00:46.186Z,17.27
2023-05-08T22:03:12.705Z,15.43
2023-05-08T22:05:39.255Z,14.03
2023-05-08T22:08:05.941Z,16.57
2023-05-08T22:10:33.983Z,14.93
2023-05-08T22:13:01.522Z,15.30
2023-05-08T22:15:30.663Z,16.93
2023-05-08T22:17:57.982Z,15.03
2023-05-08T22:20:25.183Z,12.20
2023-05-08T22:22:51.717Z,13.23
2023-05-08T22:25:18.338Z,13.20
2023-05-08T22:27:45.026Z,20.20
2023-05-08T22:30:11.889Z,13.43
2023-05-08T22:32:38.496Z,18.33
2023-05-08T22:35:05.334Z,13.53
2023-05-08T22:37:31.810Z,12.73
2023-05-08T22:39:58.309Z,12.57
2023-05-08T22:42:26.052Z,12.03
2023-05-08T22:44:52.665Z,12.83
2023-05-08T22:47:19.304Z,9.83
2023-05-08T22:49:46.479Z,10.83
2023-05-08T22:52:12.891Z,10.50
2023-05-08T22:54:39.340Z,12.63
2023-05-08T22:57:06.046Z,15.23
2023-05-08T22:59:32.622Z,10.30
2023-05-08T23:01:59.084Z,10.47
2023-05-08T23:04:25.723Z,11.03
2023-05-08T23:06:52.228Z,12.17
2023-05-08T23:09:19.036Z,13.73
2023-05-08T23:11:45.864Z,13.17
2023-05-08T23:14:12.347Z,11.17
2023-05-08T23:16:38.890Z,10.83
2023-05-08T23:19:05.531Z,11.60
2023-05-08T23:21:32.170Z,12.23
2023-05-08T23:23:59.260Z,9.70
2023-05-08T23:26:26.179Z,9.77
2023-05-08T23:28:52.722Z,11.60
2023-05-08T23:31:19.270Z,10.13
2023-05-08T23:33:45.807Z,10.10
2023-05-08T23:36:12.635Z,12.20
2023-05-08T23:38:39.079Z,10.37
2023-05-08T23:41:05.645Z,12.07
2023-05-08T23:43:32.170Z,13.23
2023-05-08T23:45:58.941Z,10.47
2023-05-08T23:48:25.889Z,12.57
2023-05-08T23:50:52.716Z,11.20
2023-05-08T23:53:19.320Z,14.73
2023-05-08T23:55:48.848Z,13.37
2023-05-08T23:58:16.079Z,12.10
